sensor_id;sensor_type;location;lat;lon;timestamp;P1;durP1;ratioP1;P2;durP2;ratioP2
49900;SDS011;35789;48.414;12.768;2023-05-07T00:00:00;4.5;;;2.1;;
49900;SDS011;35789;48.414;12.768;2023-05-07T00:05:00;4.5;;;2.1;;
49900;SDS011;35789;48.414;12.768;2023-05-07T00:10:00;4.5;;;2.1;;
49900;SDS011;35789;48.414;12.768;2023-05-07T00:15:01;4.5;;;2.1;;
49900;SDS011;35789;48.414;12.768;2023-05-07T00:20:00;4.8;;;2.2;;
49900;SDS011;35789;48.414;12.768;2023-05-07T00:25:00;4.8;;;2.2;;
49900;SDS011;35789;48.414;12.768;2023-05-07T00:30:00;4.8;;;2.2;;
49900;SDS011;35789;48.414;12.768;2023-05-07T00:35:00;4.8;;;2.2;;
49900;SDS011;35789;48.414;12.768;2023-05-07T00:40:00;4.8;;;2.2;;
49900;SDS011;35789;48.414;12.768;2023-05-07T00:45:00;4.8;;;2.2;;
49900;SDS011;35789;48.414;12.768;2023-05-07T00:50:00;5.1;;;2.5;;
49900;SDS011;35789;48.414;12.768;2023-05-07T00:55:04;5.1;;;2.5;;
49900;SDS011;35789;48.414;12.768;2023-05-07T01:00:00;5.1;;;2.5;;
49900;SDS011;35789;48.414;12.768;2023-05-07T01:05:00;5.1;;;2.5;;
49900;SDS011;35789;48.414;12.768;2023-05-07T01:10:00;5.1;;;2.5;;
49900;SDS011;35789;48.414;12.768;2023-05-07T01:15:00;5.1;;;2.5;;
49900;SDS011;35789;48.414;12.768;2023-05-07T01:20:00;6.1;;;2.8;;
49900;SDS011;35789;48.414;12.768;2023-05-07T01:25:00;6.1;;;2.8;;
49900;SDS011;35789;48.414;12.768;2023-05-07T01:30:00;6.1;;;2.8;;
49900;SDS011;35789;48.414;12.768;2023-05-07T01:35:01;6.1;;;2.8;;
49900;SDS011;35789;48.414;12.768;2023-05-07T01:40:01;6.1;;;2.8;;
49900;SDS011;35789;48.414;12.768;2023-05-07T01:45:00;6.1;;;2.8;;
49900;SDS011;35789;48.414;12.768;2023-05-07T01:50:00;5.3;;;2.8;;
49900;SDS011;35789;48.414;12.768;2023-05-07T01:55:00;5.3;;;2.8;;
49900;SDS011;35789;48.414;12.768;2023-05-07T02:00:00;5.3;;;2.8;;
49900;SDS011;35789;48.414;12.768;2023-05-07T02:05:01;5.3;;;2.8;;
49900;SDS011;35789;48.414;12.768;2023-05-07T02:10:00;5.3;;;2.8;;
49900;SDS011;35789;48.414;12.768;2023-05-07T02:15:00;5.3;;;2.8;;
49900;SDS011;35789;48.414;12.768;2023-05-07T02:20:00;6.9;;;3.0;;
49900;SDS011;35789;48.414;12.768;2023-05-07T02:25:00;6.9;;;3.0;;
49900;SDS011;35789;48.414;12.768;2023-05-07T02:30:00;6.9;;;3.0;;
49900;SDS011;35789;48.414;12.768;2023-05-07T02:35:00;6.9;;;3.0;;
49900;SDS011;35789;48.414;12.768;2023-05-07T02:40:00;6.9;;;3.0;;
49900;SDS011;35789;48.414;12.768;2023-05-07T02:45:00;6.9;;;3.0;;
49900;SDS011;35789;48.414;12.768;2023-05-07T02:50:00;6.7;;;3.3;;
49900;SDS011;35789;48.414;12.768;2023-05-07T02:55:00;6.7;;;3.3;;
49900;SDS011;35789;48.414;12.768;2023-05-07T03:00:10;6.7;;;3.3;;
49900;SDS011;35789;48.414;12.768;2023-05-07T03:05:00;6.7;;;3.3;;
49900;SDS011;35789;48.414;12.768;2023-05-07T03:10:00;6.7;;;3.3;;
49900;SDS011;35789;48.414;12.768;2023-05-07T03:15:00;6.7;;;3.3;;
49900;SDS011;35789;48.414;12.768;2023-05-07T03:20:00;6.3;;;3.2;;
49900;SDS011;35789;48.414;12.768;2023-05-07T03:25:00;6.3;;;3.2;;
49900;SDS011;35789;48.414;12.768;2023-05-07T03:30:00;6.3;;;3.2;;
49900;SDS011;35789;48.414;12.768;2023-05-07T03:35:00;6.3;;;3.2;;
49900;SDS011;35789;48.414;12.768;2023-05-07T03:40:00;6.3;;;3.2;;
49900;SDS011;35789;48.414;12.768;2023-05-07T03:45:00;6.3;;;3.2;;
49900;SDS011;35789;48.414;12.768;2023-05-07T03:50:00;6.4;;;3.3;;
49900;SDS011;35789;48.414;12.768;2023-05-07T03:55:00;6.4;;;3.3;;
49900;SDS011;35789;48.414;12.768;2023-05-07T04:00:00;6.4;;;3.3;;
49900;SDS011;35789;48.414;12.768;2023-05-07T04:05:00;6.4;;;3.3;;
49900;SDS011;35789;48.414;12.768;2023-05-07T04:10:00;6.4;;;3.3;;
49900;SDS011;35789;48.414;12.768;2023-05-07T04:15:00;6.4;;;3.3;;
49900;SDS011;35789;48.414;12.768;2023-05-07T04:20:00;6.4;;;3.6;;
49900;SDS011;35789;48.414;12.768;2023-05-07T04:25:00;6.4;;;3.6;;
49900;SDS011;35789;48.414;12.768;2023-05-07T04:30:00;6.4;;;3.6;;
49900;SDS011;35789;48.414;12.768;2023-05-07T04:35:00;6.4;;;3.6;;
49900;SDS011;35789;48.414;12.768;2023-05-07T04:40:00;6.4;;;3.6;;
49900;SDS011;35789;48.414;12.768;2023-05-07T04:45:01;6.4;;;3.6;;
49900;SDS011;35789;48.414;12.768;2023-05-07T04:50:00;6.6;;;3.4;;
49900;SDS011;35789;48.414;12.768;2023-05-07T04:55:00;6.6;;;3.4;;
49900;SDS011;35789;48.414;12.768;2023-05-07T05:00:00;6.6;;;3.4;;
49900;SDS011;35789;48.414;12.768;2023-05-07T05:05:00;6.6;;;3.4;;
49900;SDS011;35789;48.414;12.768;2023-05-07T05:10:01;6.6;;;3.4;;
49900;SDS011;35789;48.414;12.768;2023-05-07T05:15:00;6.6;;;3.4;;
49900;SDS011;35789;48.414;12.768;2023-05-07T05:20:00;7.5;;;4.3;;
49900;SDS011;35789;48.414;12.768;2023-05-07T05:25:00;7.5;;;4.3;;
49900;SDS011;35789;48.414;12.768;2023-05-07T05:30:00;7.5;;;4.3;;
49900;SDS011;35789;48.414;12.768;2023-05-07T05:35:00;7.5;;;4.3;;
49900;SDS011;35789;48.414;12.768;2023-05-07T05:40:00;7.5;;;4.3;;
49900;SDS011;35789;48.414;12.768;2023-05-07T05:45:00;7.5;;;4.3;;
49900;SDS011;35789;48.414;12.768;2023-05-07T05:50:00;8.6;;;4.8;;
49900;SDS011;35789;48.414;12.768;2023-05-07T05:55:00;8.6;;;4.8;;
49900;SDS011;35789;48.414;12.768;2023-05-07T06:00:00;8.6;;;4.8;;
49900;SDS011;35789;48.414;12.768;2023-05-07T06:05:00;8.6;;;4.8;;
49900;SDS011;35789;48.414;12.768;2023-05-07T06:10:00;8.6;;;4.8;;
49900;SDS011;35789;48.414;12.768;2023-05-07T06:15:00;8.6;;;4.8;;
49900;SDS011;35789;48.414;12.768;2023-05-07T06:20:00;9.9;;;5.0;;
49900;SDS011;35789;48.414;12.768;2023-05-07T06:25:00;9.9;;;5.0;;
49900;SDS011;35789;48.414;12.768;2023-05-07T06:30:00;9.9;;;5.0;;
49900;SDS011;35789;48.414;12.768;2023-05-07T06:35:00;9.9;;;5.0;;
49900;SDS011;35789;48.414;12.768;2023-05-07T06:40:00;9.9;;;5.0;;
49900;SDS011;35789;48.414;12.768;2023-05-07T06:45:00;9.9;;;5.0;;
49900;SDS011;35789;48.414;12.768;2023-05-07T06:50:00;8.3;;;4.5;;
49900;SDS011;35789;48.414;12.768;2023-05-07T06:55:00;8.3;;;4.5;;
49900;SDS011;35789;48.414;12.768;2023-05-07T07:00:00;8.3;;;4.5;;
49900;SDS011;35789;48.414;12.768;2023-05-07T07:05:00;8.3;;;4.5;;
49900;SDS011;35789;48.414;12.768;2023-05-07T07:10:00;8.3;;;4.5;;
49900;SDS011;35789;48.414;12.768;2023-05-07T07:15:00;8.3;;;4.5;;
49900;SDS011;35789;48.414;12.768;2023-05-07T07:20:00;8.0;;;4.7;;
49900;SDS011;35789;48.414;12.768;2023-05-07T07:25:00;8.0;;;4.7;;
49900;SDS011;35789;48.414;12.768;2023-05-07T07:30:00;8.0;;;4.7;;
49900;SDS011;35789;48.414;12.768;2023-05-07T07:35:00;8.0;;;4.7;;
49900;SDS011;35789;48.414;12.768;2023-05-07T07:40:00;8.0;;;4.7;;
49900;SDS011;35789;48.414;12.768;2023-05-07T07:45:00;8.0;;;4.7;;
49900;SDS011;35789;48.414;12.768;2023-05-07T07:50:00;7.7;;;3.9;;
49900;SDS011;35789;48.414;12.768;2023-05-07T07:55:01;7.7;;;3.9;;
49900;SDS011;35789;48.414;12.768;2023-05-07T08:00:00;7.7;;;3.9;;
49900;SDS011;35789;48.414;12.768;2023-05-07T08:05:00;7.7;;;3.9;;
49900;SDS011;35789;48.414;12.768;2023-05-07T08:10:00;7.7;;;3.9;;
49900;SDS011;35789;48.414;12.768;2023-05-07T08:15:00;7.7;;;3.9;;
49900;SDS011;35789;48.414;12.768;2023-05-07T08:20:00;7.4;;;4.2;;
49900;SDS011;35789;48.414;12.768;2023-05-07T08:25:00;7.4;;;4.2;;
49900;SDS011;35789;48.414;12.768;2023-05-07T08:30:00;7.4;;;4.2;;
49900;SDS011;35789;48.414;12.768;2023-05-07T08:35:00;7.4;;;4.2;;
49900;SDS011;35789;48.414;12.768;2023-05-07T08:40:00;7.4;;;4.2;;
49900;SDS011;35789;48.414;12.768;2023-05-07T08:45:02;7.4;;;4.2;;
49900;SDS011;35789;48.414;12.768;2023-05-07T08:50:01;6.2;;;3.5;;
49900;SDS011;35789;48.414;12.768;2023-05-07T08:55:02;6.2;;;3.5;;
49900;SDS011;35789;48.414;12.768;2023-05-07T09:00:00;6.2;;;3.5;;
49900;SDS011;35789;48.414;12.768;2023-05-07T09:05:00;6.2;;;3.5;;
49900;SDS011;35789;48.414;12.768;2023-05-07T09:10:02;6.2;;;3.5;;
49900;SDS011;35789;48.414;12.768;2023-05-07T09:15:00;6.2;;;3.5;;
49900;SDS011;35789;48.414;12.768;2023-05-07T09:20:02;7.9;;;4.8;;
49900;SDS011;35789;48.414;12.768;2023-05-07T09:25:00;7.9;;;4.8;;
49900;SDS011;35789;48.414;12.768;2023-05-07T09:30:03;7.9;;;4.8;;
49900;SDS011;35789;48.414;12.768;2023-05-07T09:35:00;7.9;;;4.8;;
49900;SDS011;35789;48.414;12.768;2023-05-07T09:40:00;7.9;;;4.8;;
49900;SDS011;35789;48.414;12.768;2023-05-07T09:45:00;7.9;;;4.8;;
49900;SDS011;35789;48.414;12.768;2023-05-07T09:50:03;8.3;;;4.8;;
49900;SDS011;35789;48.414;12.768;2023-05-07T09:55:01;8.3;;;4.8;;
49900;SDS011;35789;48.414;12.768;2023-05-07T10:00:02;8.3;;;4.8;;
49900;SDS011;35789;48.414;12.768;2023-05-07T10:05:01;8.3;;;4.8;;
49900;SDS011;35789;48.414;12.768;2023-05-07T10:10:01;8.3;;;4.8;;
49900;SDS011;35789;48.414;12.768;2023-05-07T10:15:01;8.3;;;4.8;;
49900;SDS011;35789;48.414;12.768;2023-05-07T10:20:00;6.5;;;3.5;;
49900;SDS011;35789;48.414;12.768;2023-05-07T10:25:00;6.5;;;3.5;;
49900;SDS011;35789;48.414;12.768;2023-05-07T10:30:09;6.5;;;3.5;;
49900;SDS011;35789;48.414;12.768;2023-05-07T10:35:03;6.5;;;3.5;;
49900;SDS011;35789;48.414;12.768;2023-05-07T10:40:01;6.5;;;3.5;;
49900;SDS011;35789;48.414;12.768;2023-05-07T10:45:12;6.5;;;3.5;;
49900;SDS011;35789;48.414;12.768;2023-05-07T11:00:00;4.7;;;2.4;;
49900;SDS011;35789;48.414;12.768;2023-05-07T11:10:03;4.7;;;2.4;;
49900;SDS011;35789;48.414;12.768;2023-05-07T11:15:00;4.7;;;2.4;;
49900;SDS011;35789;48.414;12.768;2023-05-07T11:20:01;4.8;;;2.6;;
49900;SDS011;35789;48.414;12.768;2023-05-07T11:25:01;4.8;;;2.6;;
49900;SDS011;35789;48.414;12.768;2023-05-07T11:30:00;4.8;;;2.6;;
49900;SDS011;35789;48.414;12.768;2023-05-07T11:35:00;4.8;;;2.6;;
49900;SDS011;35789;48.414;12.768;2023-05-07T11:40:03;4.8;;;2.6;;
49900;SDS011;35789;48.414;12.768;2023-05-07T11:45:01;4.8;;;2.6;;
49900;SDS011;35789;48.414;12.768;2023-05-07T11:50:03;5.1;;;2.7;;
49900;SDS011;35789;48.414;12.768;2023-05-07T11:55:02;5.1;;;2.7;;
49900;SDS011;35789;48.414;12.768;2023-05-07T12:00:01;5.1;;;2.7;;
49900;SDS011;35789;48.414;12.768;2023-05-07T12:05:00;5.1;;;2.7;;
49900;SDS011;35789;48.414;12.768;2023-05-07T12:10:04;5.1;;;2.7;;
49900;SDS011;35789;48.414;12.768;2023-05-07T12:15:00;5.1;;;2.7;;
49900;SDS011;35789;48.414;12.768;2023-05-07T12:20:00;4.2;;;2.4;;
49900;SDS011;35789;48.414;12.768;2023-05-07T12:25:00;4.2;;;2.4;;
49900;SDS011;35789;48.414;12.768;2023-05-07T12:30:00;4.2;;;2.4;;
49900;SDS011;35789;48.414;12.768;2023-05-07T12:35:00;4.2;;;2.4;;
49900;SDS011;35789;48.414;12.768;2023-05-07T12:40:05;4.2;;;2.4;;
49900;SDS011;35789;48.414;12.768;2023-05-07T12:45:07;4.2;;;2.4;;
49900;SDS011;35789;48.414;12.768;2023-05-07T12:50:00;4.1;;;1.9;;
49900;SDS011;35789;48.414;12.768;2023-05-07T12:55:05;4.1;;;1.9;;
49900;SDS011;35789;48.414;12.768;2023-05-07T13:00:00;4.1;;;1.9;;
49900;SDS011;35789;48.414;12.768;2023-05-07T13:05:00;4.1;;;1.9;;
49900;SDS011;35789;48.414;12.768;2023-05-07T13:10:00;4.1;;;1.9;;
49900;SDS011;35789;48.414;12.768;2023-05-07T13:15:00;4.1;;;1.9;;
49900;SDS011;35789;48.414;12.768;2023-05-07T13:20:00;5.4;;;1.9;;
49900;SDS011;35789;48.414;12.768;2023-05-07T13:25:00;5.4;;;1.9;;
49900;SDS011;35789;48.414;12.768;2023-05-07T13:30:00;5.4;;;1.9;;
49900;SDS011;35789;48.414;12.768;2023-05-07T13:35:00;5.4;;;1.9;;
49900;SDS011;35789;48.414;12.768;2023-05-07T13:40:00;5.4;;;1.9;;
49900;SDS011;35789;48.414;12.768;2023-05-07T13:45:04;5.4;;;1.9;;
49900;SDS011;35789;48.414;12.768;2023-05-07T13:50:00;3.7;;;1.6;;
49900;SDS011;35789;48.414;12.768;2023-05-07T13:55:00;3.7;;;1.6;;
49900;SDS011;35789;48.414;12.768;2023-05-07T14:00:00;3.7;;;1.6;;
49900;SDS011;35789;48.414;12.768;2023-05-07T14:05:00;3.7;;;1.6;;
49900;SDS011;35789;48.414;12.768;2023-05-07T14:10:00;3.7;;;1.6;;
49900;SDS011;35789;48.414;12.768;2023-05-07T14:15:00;3.7;;;1.6;;
49900;SDS011;35789;48.414;12.768;2023-05-07T14:20:00;4.0;;;1.7;;
49900;SDS011;35789;48.414;12.768;2023-05-07T14:25:00;4.0;;;1.7;;
49900;SDS011;35789;48.414;12.768;2023-05-07T14:30:00;4.0;;;1.7;;
49900;SDS011;35789;48.414;12.768;2023-05-07T14:35:00;4.0;;;1.7;;
49900;SDS011;35789;48.414;12.768;2023-05-07T14:40:00;4.0;;;1.7;;
49900;SDS011;35789;48.414;12.768;2023-05-07T14:45:00;4.0;;;1.7;;
49900;SDS011;35789;48.414;12.768;2023-05-07T14:50:00;3.7;;;1.8;;
49900;SDS011;35789;48.414;12.768;2023-05-07T14:55:00;3.7;;;1.8;;
49900;SDS011;35789;48.414;12.768;2023-05-07T15:00:00;3.7;;;1.8;;
49900;SDS011;35789;48.414;12.768;2023-05-07T15:05:00;3.7;;;1.8;;
49900;SDS011;35789;48.414;12.768;2023-05-07T15:10:00;3.7;;;1.8;;
49900;SDS011;35789;48.414;12.768;2023-05-07T15:15:00;3.7;;;1.8;;
49900;SDS011;35789;48.414;12.768;2023-05-07T15:20:00;4.4;;;1.9;;
49900;SDS011;35789;48.414;12.768;2023-05-07T15:25:00;4.4;;;1.9;;
49900;SDS011;35789;48.414;12.768;2023-05-07T15:30:00;4.4;;;1.9;;
49900;SDS011;35789;48.414;12.768;2023-05-07T15:35:00;4.4;;;1.9;;
49900;SDS011;35789;48.414;12.768;2023-05-07T15:40:00;4.4;;;1.9;;
49900;SDS011;35789;48.414;12.768;2023-05-07T15:45:00;4.4;;;1.9;;
49900;SDS011;35789;48.414;12.768;2023-05-07T15:50:00;5.4;;;3.0;;
49900;SDS011;35789;48.414;12.768;2023-05-07T15:55:00;5.4;;;3.0;;
49900;SDS011;35789;48.414;12.768;2023-05-07T16:00:00;5.4;;;3.0;;
49900;SDS011;35789;48.414;12.768;2023-05-07T16:05:00;5.4;;;3.0;;
49900;SDS011;35789;48.414;12.768;2023-05-07T16:10:00;5.4;;;3.0;;
49900;SDS011;35789;48.414;12.768;2023-05-07T16:15:00;5.4;;;3.0;;
49900;SDS011;35789;48.414;12.768;2023-05-07T16:20:01;5.7;;;2.9;;
49900;SDS011;35789;48.414;12.768;2023-05-07T16:25:00;5.7;;;2.9;;
49900;SDS011;35789;48.414;12.768;2023-05-07T16:30:00;5.7;;;2.9;;
49900;SDS011;35789;48.414;12.768;2023-05-07T16:35:00;5.7;;;2.9;;
49900;SDS011;35789;48.414;12.768;2023-05-07T16:40:00;5.7;;;2.9;;
49900;SDS011;35789;48.414;12.768;2023-05-07T16:45:00;5.7;;;2.9;;
49900;SDS011;35789;48.414;12.768;2023-05-07T16:50:01;4.8;;;2.7;;
49900;SDS011;35789;48.414;12.768;2023-05-07T16:55:00;4.8;;;2.7;;
49900;SDS011;35789;48.414;12.768;2023-05-07T17:00:00;4.8;;;2.7;;
49900;SDS011;35789;48.414;12.768;2023-05-07T17:05:00;4.8;;;2.7;;
49900;SDS011;35789;48.414;12.768;2023-05-07T17:10:01;4.8;;;2.7;;
49900;SDS011;35789;48.414;12.768;2023-05-07T17:15:00;4.8;;;2.7;;
49900;SDS011;35789;48.414;12.768;2023-05-07T17:20:00;6.7;;;3.3;;
49900;SDS011;35789;48.414;12.768;2023-05-07T17:25:00;6.7;;;3.3;;
49900;SDS011;35789;48.414;12.768;2023-05-07T17:30:01;6.7;;;3.3;;
49900;SDS011;35789;48.414;12.768;2023-05-07T17:35:00;6.7;;;3.3;;
49900;SDS011;35789;48.414;12.768;2023-05-07T17:40:00;6.7;;;3.3;;
49900;SDS011;35789;48.414;12.768;2023-05-07T17:45:00;7.5;;;4.2;;
49900;SDS011;35789;48.414;12.768;2023-05-07T17:50:00;7.5;;;4.2;;
49900;SDS011;35789;48.414;12.768;2023-05-07T17:55:00;7.5;;;4.2;;
49900;SDS011;35789;48.414;12.768;2023-05-07T18:00:00;7.5;;;4.2;;
49900;SDS011;35789;48.414;12.768;2023-05-07T18:05:00;7.5;;;4.2;;
49900;SDS011;35789;48.414;12.768;2023-05-07T18:10:00;7.5;;;4.2;;
49900;SDS011;35789;48.414;12.768;2023-05-07T18:15:00;7.4;;;3.8;;
49900;SDS011;35789;48.414;12.768;2023-05-07T18:20:00;7.4;;;3.8;;
49900;SDS011;35789;48.414;12.768;2023-05-07T18:25:00;7.4;;;3.8;;
49900;SDS011;35789;48.414;12.768;2023-05-07T18:30:01;7.4;;;3.8;;
49900;SDS011;35789;48.414;12.768;2023-05-07T18:35:00;7.4;;;3.8;;
49900;SDS011;35789;48.414;12.768;2023-05-07T18:40:00;7.4;;;3.8;;
49900;SDS011;35789;48.414;12.768;2023-05-07T18:45:00;5.9;;;2.9;;
49900;SDS011;35789;48.414;12.768;2023-05-07T18:50:00;5.9;;;2.9;;
49900;SDS011;35789;48.414;12.768;2023-05-07T18:55:00;5.9;;;2.9;;
49900;SDS011;35789;48.414;12.768;2023-05-07T19:00:03;5.9;;;2.9;;
49900;SDS011;35789;48.414;12.768;2023-05-07T19:05:00;5.9;;;2.9;;
49900;SDS011;35789;48.414;12.768;2023-05-07T19:10:00;5.9;;;2.9;;
49900;SDS011;35789;48.414;12.768;2023-05-07T19:15:00;6.4;;;2.7;;
49900;SDS011;35789;48.414;12.768;2023-05-07T19:20:00;6.4;;;2.7;;
49900;SDS011;35789;48.414;12.768;2023-05-07T19:25:00;6.4;;;2.7;;
49900;SDS011;35789;48.414;12.768;2023-05-07T19:30:00;6.4;;;2.7;;
49900;SDS011;35789;48.414;12.768;2023-05-07T19:35:00;6.4;;;2.7;;
49900;SDS011;35789;48.414;12.768;2023-05-07T19:40:00;6.4;;;2.7;;
49900;SDS011;35789;48.414;12.768;2023-05-07T19:45:01;7.3;;;3.6;;
49900;SDS011;35789;48.414;12.768;2023-05-07T19:50:00;7.3;;;3.6;;
49900;SDS011;35789;48.414;12.768;2023-05-07T19:55:00;7.3;;;3.6;;
49900;SDS011;35789;48.414;12.768;2023-05-07T20:00:00;7.3;;;3.6;;
49900;SDS011;35789;48.414;12.768;2023-05-07T20:05:00;7.3;;;3.6;;
49900;SDS011;35789;48.414;12.768;2023-05-07T20:10:00;7.3;;;3.6;;
49900;SDS011;35789;48.414;12.768;2023-05-07T20:15:00;7.2;;;3.6;;
49900;SDS011;35789;48.414;12.768;2023-05-07T20:20:00;7.2;;;3.6;;
49900;SDS011;35789;48.414;12.768;2023-05-07T20:25:02;7.2;;;3.6;;
49900;SDS011;35789;48.414;12.768;2023-05-07T20:30:00;7.2;;;3.6;;
49900;SDS011;35789;48.414;12.768;2023-05-07T20:35:00;7.2;;;3.6;;
49900;SDS011;35789;48.414;12.768;2023-05-07T20:40:01;7.2;;;3.6;;
49900;SDS011;35789;48.414;12.768;2023-05-07T20:45:00;7.5;;;4.3;;
49900;SDS011;35789;48.414;12.768;2023-05-07T20:50:00;7.5;;;4.3;;
49900;SDS011;35789;48.414;12.768;2023-05-07T20:55:00;7.5;;;4.3;;
49900;SDS011;35789;48.414;12.768;2023-05-07T21:00:01;7.5;;;4.3;;
49900;SDS011;35789;48.414;12.768;2023-05-07T21:05:00;7.5;;;4.3;;
49900;SDS011;35789;48.414;12.768;2023-05-07T21:10:00;7.5;;;4.3;;
49900;SDS011;35789;48.414;12.768;2023-05-07T21:15:00;9.1;;;4.5;;
49900;SDS011;35789;48.414;12.768;2023-05-07T21:20:00;9.1;;;4.5;;
49900;SDS011;35789;48.414;12.768;2023-05-07T21:25:00;9.1;;;4.5;;
49900;SDS011;35789;48.414;12.768;2023-05-07T21:30:00;9.1;;;4.5;;
49900;SDS011;35789;48.414;12.768;2023-05-07T21:35:00;9.1;;;4.5;;
49900;SDS011;35789;48.414;12.768;2023-05-07T21:40:00;9.1;;;4.5;;
49900;SDS011;35789;48.414;12.768;2023-05-07T21:45:03;9.8;;;4.8;;
49900;SDS011;35789;48.414;12.768;2023-05-07T21:50:00;9.8;;;4.8;;
49900;SDS011;35789;48.414;12.768;2023-05-07T21:55:00;9.8;;;4.8;;
49900;SDS011;35789;48.414;12.768;2023-05-07T22:00:00;9.8;;;4.8;;
49900;SDS011;35789;48.414;12.768;2023-05-07T22:05:00;9.8;;;4.8;;
49900;SDS011;35789;48.414;12.768;2023-05-07T22:10:00;9.8;;;4.8;;
49900;SDS011;35789;48.414;12.768;2023-05-07T22:15:01;9.0;;;4.1;;
49900;SDS011;35789;48.414;12.768;2023-05-07T22:20:00;9.0;;;4.1;;
49900;SDS011;35789;48.414;12.768;2023-05-07T22:25:00;9.0;;;4.1;;
49900;SDS011;35789;48.414;12.768;2023-05-07T22:30:01;9.0;;;4.1;;
49900;SDS011;35789;48.414;12.768;2023-05-07T22:35:00;9.0;;;4.1;;
49900;SDS011;35789;48.414;12.768;2023-05-07T22:40:00;9.0;;;4.1;;
49900;SDS011;35789;48.414;12.768;2023-05-07T22:45:00;6.1;;;3.4;;
49900;SDS011;35789;48.414;12.768;2023-05-07T22:50:00;6.1;;;3.4;;
49900;SDS011;35789;48.414;12.768;2023-05-07T22:55:00;6.1;;;3.4;;
49900;SDS011;35789;48.414;12.768;2023-05-07T23:00:00;6.1;;;3.4;;
49900;SDS011;35789;48.414;12.768;2023-05-07T23:05:00;6.1;;;3.4;;
49900;SDS011;35789;48.414;12.768;2023-05-07T23:10:00;6.1;;;3.4;;
49900;SDS011;35789;48.414;12.768;2023-05-07T23:15:01;7.5;;;3.7;;
49900;SDS011;35789;48.414;12.768;2023-05-07T23:20:00;7.5;;;3.7;;
49900;SDS011;35789;48.414;12.768;2023-05-07T23:25:00;7.5;;;3.7;;
49900;SDS011;35789;48.414;12.768;2023-05-07T23:30:00;7.5;;;3.7;;
49900;SDS011;35789;48.414;12.768;2023-05-07T23:35:00;7.5;;;3.7;;
49900;SDS011;35789;48.414;12.768;2023-05-07T23:40:00;7.5;;;3.7;;
49900;SDS011;35789;48.414;12.768;2023-05-07T23:45:00;8.9;;;4.9;;
49900;SDS011;35789;48.414;12.768;2023-05-07T23:50:00;8.9;;;4.9;;
49900;SDS011;35789;48.414;12.768;2023-05-07T23:55:00;8.9;;;4.9;;
